Time;durP1;ratioP1;P1;durP2;ratioP2;P2;SDS_P1;SDS_P2;PMS_P1;PMS_P2;Temp;Humidity;BMP_temperature;BMP_pressure;BME280_temperature;BME280_humidity;BME280_pressure;Samples;Min_cycle;Max_cycle;Signal;HPM_P1;HPM_P2
2021/08/07 00:00:11;;;;;;;15.82;5.18;;;;;;;19.16;78.37;100391.75;4834836;29;20467;-62
2021/08/07 00:02:38;;;;;;;13.00;5.75;;;;;;;19.14;78.83;100393.78;4828153;29;20081;-61
2021/08/07 00:05:05;;;;;;;15.55;5.18;;;;;;;18.94;76.95;100398.41;4828983;29;20053;-62
2021/08/07 00:07:34;;;;;;;14.32;5.22;;;;;;;18.91;77.26;100386.34;4834912;29;20145;-60
2021/08/07 00:10:01;;;;;;;12.95;5.03;;;;;;;19.06;78.38;100395.91;4833001;29;20085;-61
2021/08/07 00:12:28;;;;;;;15.75;5.00;;;;;;;18.80;76.69;100391.50;4822960;29;20517;-61
2021/08/07 00:14:54;;;;;;;12.48;4.50;;;;;;;18.95;77.00;100389.41;4835905;29;20085;-60
2021/08/07 00:17:21;;;;;;;10.68;4.78;;;;;;;19.03;77.22;100397.13;4829778;29;20054;-61
2021/08/07 00:19:47;;;;;;;12.90;4.85;;;;;;;19.00;76.40;100394.09;4836128;29;20156;-61
2021/08/07 00:22:15;;;;;;;10.25;4.30;;;;;;;19.05;75.86;100402.22;4835545;29;20089;-62
2021/08/07 00:24:41;;;;;;;10.57;4.25;;;;;;;18.90;76.72;100402.53;4823006;29;20145;-61
2021/08/07 00:27:08;;;;;;;12.07;4.65;;;;;;;18.85;77.24;100394.38;4842747;29;20144;-62
2021/08/07 00:29:35;;;;;;;13.98;4.25;;;;;;;18.85;76.97;100391.69;4828559;29;20493;-61
2021/08/07 00:32:03;;;;;;;13.35;4.10;;;;;;;18.99;76.91;100397.78;4836363;29;20141;-61
2021/08/07 00:34:29;;;;;;;15.98;4.32;;;;;;;18.96;76.28;100385.72;4830999;29;20092;-59
2021/08/07 00:36:56;;;;;;;11.02;4.45;;;;;;;18.89;76.96;100391.06;4833196;29;20190;-61
2021/08/07 00:39:23;;;;;;;14.13;4.78;;;;;;;18.88;77.13;100388.63;4826603;29;20639;-61
2021/08/07 00:41:49;;;;;;;18.35;4.40;;;;;;;18.90;76.40;100387.38;4836455;29;20058;-61
2021/08/07 00:44:16;;;;;;;10.32;3.97;;;;;;;18.93;76.81;100386.97;4836737;29;20474;-62
2021/08/07 00:46:42;;;;;;;12.38;4.13;;;;;;;19.00;76.14;100386.13;4830888;29;20093;-61
2021/08/07 00:49:09;;;;;;;18.00;5.38;;;;;;;18.90;76.72;100384.72;4840659;29;20773;-60
2021/08/07 00:51:35;;;;;;;14.82;5.30;;;;;;;18.85;77.32;100381.06;4825108;29;20181;-61
2021/08/07 00:54:02;;;;;;;14.07;4.80;;;;;;;18.85;78.17;100384.53;4827615;29;20553;-62
2021/08/07 00:56:28;;;;;;;16.63;5.70;;;;;;;18.42;80.36;100382.41;4829018;29;20089;-61
2021/08/07 00:58:55;;;;;;;13.93;5.20;;;;;;;18.32;81.01;100382.03;4836539;29;20093;-62
2021/08/07 01:01:24;;;;;;;14.48;5.32;;;;;;;18.14;81.47;100370.22;4830138;29;20143;-61
2021/08/07 01:03:56;;;;;;;19.85;6.22;;;;;;;18.24;83.11;100384.94;4831788;29;20396;-62
2021/08/07 01:06:33;;;;;;;17.45;6.18;;;;;;;18.17;83.99;100377.78;4836078;29;20152;-61
2021/08/07 01:09:21;;;;;;;18.02;5.85;;;;;;;18.42;82.62;100384.25;4831372;29;20146;-62
2021/08/07 01:11:56;;;;;;;18.58;6.07;;;;;;;18.27;83.68;100390.63;4835528;29;20053;-62
2021/08/07 01:14:31;;;;;;;17.48;6.75;;;;;;;18.56;82.07;100380.53;4828434;29;20098;-61
2021/08/07 01:17:00;;;;;;;15.40;6.68;;;;;;;18.74;81.74;100380.69;4831627;29;20061;-62
2021/08/07 01:19:32;;;;;;;;;;;;;;;18.55;82.61;100393.00;4828083;29;20141;-61
2021/08/07 01:22:01;;;;;;;16.77;6.93;;;;;;;18.43;83.89;100383.25;4837604;29;19928;-62
2021/08/07 01:24:44;;;;;;;17.55;8.48;;;;;;;18.21;86.14;100390.63;4828907;29;20145;-62
2021/08/07 01:27:22;;;;;;;14.77;6.93;;;;;;;18.32;85.86;100388.16;4843583;29;20085;-62
2021/08/07 01:29:52;;;;;;;13.93;6.85;;;;;;;18.45;85.37;100384.66;4823400;29;20543;-62
2021/08/07 01:32:26;;;;;;;14.68;7.57;;;;;;;18.38;86.10;100381.22;4832827;29;20154;-62
2021/08/07 01:34:54;;;;;;;14.05;7.45;;;;;;;18.26;86.32;100385.53;4826827;29;20050;-62
2021/08/07 01:37:23;;;;;;;19.85;7.55;;;;;;;18.22;87.24;100381.66;4835559;29;20768;-62
2021/08/07 01:39:56;;;;;;;16.73;6.90;;;;;;;18.41;86.22;100393.28;4827936;29;20061;-62
2021/08/07 01:42:24;;;;;;;22.55;7.80;;;;;;;18.42;86.18;100389.56;4822321;29;20479;-62
2021/08/07 01:44:51;;;;;;;25.63;8.05;;;;;;;18.43;86.15;100389.38;4828298;29;20097;-61
2021/08/07 01:47:41;;;;;;;17.48;7.55;;;;;;;18.55;86.05;100384.22;4823301;29;20537;-62
2021/08/07 01:50:37;;;;;;;20.30;7.70;;;;;;;18.40;85.72;100379.16;4837899;29;20581;-62
2021/08/07 01:53:13;;;;;;;19.90;7.88;;;;;;;18.33;86.19;100371.22;4826133;29;20149;-60
2021/08/07 01:55:47;;;;;;;17.38;8.07;;;;;;;18.35;86.79;100374.47;4818203;29;20133;-62
2021/08/07 01:58:22;;;;;;;25.70;8.50;;;;;;;18.44;85.68;100368.94;4816244;29;20062;-62
2021/08/07 02:00:50;;;;;;;19.42;8.05;;;;;;;17.86;88.69;100367.84;4834966;29;20093;-62
2021/08/07 02:03:18;;;;;;;19.67;7.45;;;;;;;18.14;87.21;100362.28;4828839;29;20114;-62
2021/08/07 02:05:46;;;;;;;14.75;7.50;;;;;;;18.10;86.91;100358.41;4835033;29;20117;-62
2021/08/07 02:08:14;;;;;;;;;;;;;;;18.23;86.89;100362.88;4829919;29;20062;-62
2021/08/07 02:10:43;;;;;;;20.03;7.80;;;;;;;18.31;85.37;100360.00;4829530;29;19936;-61
2021/08/07 02:13:13;;;;;;;22.50;8.50;;;;;;;18.28;85.33;100363.06;4826252;29;20297;-61
2021/08/07 02:15:40;;;;;;;18.25;8.82;;;;;;;18.07;85.52;100358.84;4834539;29;20054;-62
2021/08/07 02:18:08;;;;;;;19.42;8.10;;;;;;;18.00;86.55;100362.53;4835343;29;20058;-62
2021/08/07 02:20:34;;;;;;;17.93;8.77;;;;;;;17.62;88.09;100361.28;4813189;29;20539;-62
2021/08/07 02:23:01;;;;;;;18.95;8.15;;;;;;;17.71;87.30;100370.66;4819822;29;20058;-62
2021/08/07 02:25:27;;;;;;;19.10;8.93;;;;;;;17.89;86.36;100359.44;4824991;29;20062;-62
2021/08/07 02:27:56;;;;;;;21.10;9.00;;;;;;;17.69;87.25;100359.44;4833390;29;20087;-62
2021/08/07 02:30:23;;;;;;;22.33;8.30;;;;;;;17.47;88.94;100353.53;4828349;29;20073;-62
2021/08/07 02:32:50;;;;;;;22.30;8.13;;;;;;;17.52;88.30;100352.91;4834471;29;20061;-62
2021/08/07 02:35:18;;;;;;;20.50;8.30;;;;;;;17.27;89.82;100360.63;4826437;29;20057;-61
2021/08/07 02:37:45;;;;;;;20.13;8.77;;;;;;;17.12;90.65;100352.84;4830512;29;20057;-62
2021/08/07 02:40:14;;;;;;;22.30;8.20;;;;;;;17.25;90.54;100354.69;4824722;29;20085;-62
2021/08/07 02:42:41;;;;;;;23.13;8.32;;;;;;;17.08;91.11;100355.09;4833915;29;20093;-62
2021/08/07 02:45:08;;;;;;;18.33;7.50;;;;;;;17.20;90.52;100360.63;4834999;29;20220;-61
2021/08/07 02:47:36;;;;;;;21.73;7.70;;;;;;;17.28;89.67;100355.13;4827634;29;20089;-62
2021/08/07 02:50:04;;;;;;;25.98;8.02;;;;;;;17.00;91.18;100353.44;4836870;29;20062;-61
2021/08/07 02:52:33;;;;;;;20.05;7.40;;;;;;;16.94;91.85;100361.38;4822673;29;20085;-62
2021/08/07 02:55:03;;;;;;;17.27;6.90;;;;;;;16.82;92.11;100355.00;4823523;29;20136;-62
2021/08/07 02:57:30;;;;;;;22.67;7.80;;;;;;;16.88;92.52;100357.69;4826904;29;20418;-62
2021/08/07 03:00:01;;;;;;;21.75;7.72;;;;;;;16.78;92.73;100362.53;4834446;29;20053;-63
2021/08/07 03:02:27;;;;;;;17.90;7.03;;;;;;;16.76;92.78;100359.25;4827336;29;20140;-63
2021/08/07 03:04:54;;;;;;;18.27;7.22;;;;;;;16.70;93.95;100358.22;4827784;29;20250;-62
2021/08/07 03:07:21;;;;;;;20.17;7.80;;;;;;;16.95;92.69;100361.16;4826536;29;20062;-63
2021/08/07 03:09:47;;;;;;;18.75;6.88;;;;;;;16.89;92.91;100354.00;4834452;29;20097;-63
2021/08/07 03:12:15;;;;;;;22.55;7.75;;;;;;;16.92;92.98;100355.47;4832424;29;20578;-63
2021/08/07 03:14:43;;;;;;;23.00;8.38;;;;;;;16.85;93.05;100352.78;4827679;29;20093;-63
2021/08/07 03:17:10;;;;;;;23.38;7.65;;;;;;;17.10;91.74;100355.69;4831076;29;20378;-63
2021/08/07 03:19:36;;;;;;;21.90;8.10;;;;;;;17.02;91.61;100347.94;4826014;29;20145;-63
2021/08/07 03:22:03;;;;;;;18.10;8.18;;;;;;;17.13;91.12;100349.19;4821740;29;20090;-63
2021/08/07 03:24:29;;;;;;;29.88;9.02;;;;;;;17.20;89.82;100353.47;4827010;29;20466;-63
2021/08/07 03:26:55;;;;;;;13.75;6.88;;;;;;;16.80;91.90;100345.41;4834296;29;20141;-63
2021/08/07 03:29:22;;;;;;;22.42;7.38;;;;;;;16.86;92.57;100348.31;4824362;29;20153;-63
2021/08/07 03:31:49;;;;;;;17.30;7.30;;;;;;;17.19;89.79;100341.25;4829703;29;20169;-63
2021/08/07 03:34:15;;;;;;;12.90;7.18;;;;;;;17.31;89.22;100349.44;4828549;29;20065;-62
2021/08/07 03:36:43;;;;;;;20.25;7.55;;;;;;;17.38;87.68;100352.06;4833757;29;20145;-63
2021/08/07 03:39:09;;;;;;;17.15;8.38;;;;;;;17.36;88.12;100351.47;4834526;29;20089;-62
2021/08/07 03:41:36;;;;;;;16.10;5.88;;;;;;;17.32;87.34;100348.41;4825684;29;20089;-62
2021/08/07 03:44:02;;;;;;;16.27;6.63;;;;;;;17.28;87.34;100355.13;4828877;29;20152;-62
2021/08/07 03:46:29;;;;;;;15.63;6.20;;;;;;;17.25;88.25;100344.09;4825243;29;20149;-62
2021/08/07 03:48:55;;;;;;;12.98;6.05;;;;;;;17.20;88.10;100358.78;4838326;29;20560;-61
2021/08/07 03:51:22;;;;;;;18.10;6.00;;;;;;;17.21;88.30;100349.00;4830660;29;20173;-62
2021/08/07 03:53:48;;;;;;;9.70;5.97;;;;;;;17.20;87.42;100348.16;4830422;29;20101;-62
2021/08/07 03:56:15;;;;;;;14.38;6.07;;;;;;;17.17;88.06;100348.59;4825857;29;20081;-62
2021/08/07 03:58:41;;;;;;;24.42;7.15;;;;;;;17.11;89.22;100351.22;4832393;29;20137;-62
2021/08/07 04:01:07;;;;;;;18.23;6.55;;;;;;;16.96;90.26;100352.22;4836690;29;20533;-62
2021/08/07 04:03:34;;;;;;;18.73;7.57;;;;;;;16.99;90.41;100343.03;4831148;29;20073;-62
2021/08/07 04:06:21;;;;;;;13.75;7.07;;;;;;;17.06;89.64;100346.53;4837506;29;20056;-62
2021/08/07 04:08:47;;;;;;;24.98;6.68;;;;;;;17.22;89.55;100347.97;4830128;29;20140;-62
2021/08/07 04:11:13;;;;;;;15.82;6.20;;;;;;;17.28;88.74;100346.38;4832816;29;20145;-62
2021/08/07 04:13:40;;;;;;;22.55;8.38;;;;;;;17.29;88.75;100345.31;4827213;29;20556;-61
2021/08/07 04:16:08;;;;;;;17.48;6.47;;;;;;;17.34;88.45;100341.06;4836303;29;20133;-62
2021/08/07 04:18:34;;;;;;;11.52;5.88;;;;;;;17.41;87.49;100338.44;4830538;29;20053;-62
2021/08/07 04:21:01;;;;;;;18.63;6.65;;;;;;;16.95;90.49;100337.31;4832103;29;20138;-61
2021/08/07 04:23:27;;;;;;;22.42;7.43;;;;;;;16.77;92.62;100337.03;4819093;29;20085;-62
2021/08/07 04:25:53;;;;;;;16.80;6.97;;;;;;;17.11;90.95;100341.44;4831549;29;20149;-62
2021/08/07 04:28:20;;;;;;;18.67;7.22;;;;;;;17.26;89.81;100343.91;4835763;29;20775;-61
2021/08/07 04:30:48;;;;;;;17.60;7.18;;;;;;;17.27;89.32;100339.41;4831560;29;20061;-63
2021/08/07 04:33:15;;;;;;;27.98;7.95;;;;;;;17.30;89.05;100341.66;4836957;29;20423;-63
2021/08/07 04:35:41;;;;;;;16.10;7.43;;;;;;;17.34;88.66;100334.94;4830256;29;20142;-62
2021/08/07 04:38:08;;;;;;;20.10;7.20;;;;;;;17.36;88.60;100346.97;4832717;29;20141;-60
2021/08/07 04:40:34;;;;;;;19.98;6.97;;;;;;;17.34;88.62;100337.59;4824767;29;20224;-59
2021/08/07 04:43:00;;;;;;;18.23;7.00;;;;;;;17.35;88.10;100337.41;4836857;29;20140;-61
2021/08/07 04:45:27;;;;;;;16.50;7.40;;;;;;;17.35;88.19;100334.75;4830086;29;20064;-63
2021/08/07 04:47:56;;;;;;;14.07;7.00;;;;;;;17.30;88.21;100337.19;4837173;29;20061;-63
2021/08/07 04:50:24;;;;;;;19.23;6.63;;;;;;;17.37;88.20;100337.19;4831599;29;20145;-63
2021/08/07 04:52:51;;;;;;;;;;;;;;;17.11;89.52;100338.81;4829096;29;20526;-63
2021/08/07 04:55:18;;;;;;;22.80;7.20;;;;;;;17.12;89.67;100336.97;4820897;29;20480;-62
2021/08/07 04:57:45;;;;;;;16.95;7.05;;;;;;;17.33;88.33;100341.28;4835517;29;20072;-62
2021/08/07 05:00:13;;;;;;;15.82;6.93;;;;;;;17.46;87.44;100340.47;4836827;29;20060;-63
2021/08/07 05:02:40;;;;;;;19.00;6.18;;;;;;;17.54;86.52;100343.75;4829380;29;20205;-62
2021/08/07 05:05:08;;;;;;;16.53;7.60;;;;;;;17.51;86.00;100341.47;4832346;29;20061;-63
2021/08/07 05:07:34;;;;;;;20.15;6.60;;;;;;;17.60;86.02;100342.09;4825163;29;20852;-60
2021/08/07 05:10:03;;;;;;;21.70;7.15;;;;;;;17.62;86.06;100339.22;4836367;29;20435;-63
2021/08/07 05:12:29;;;;;;;25.58;7.00;;;;;;;17.66;86.03;100343.94;4829005;29;20502;-60
2021/08/07 05:14:56;;;;;;;15.63;6.72;;;;;;;17.73;85.52;100334.13;4836367;29;20097;-60
2021/08/07 05:17:24;;;;;;;23.95;7.47;;;;;;;17.71;85.39;100335.38;4829735;29;20084;-63
2021/08/07 05:19:52;;;;;;;17.50;6.40;;;;;;;17.70;85.16;100337.22;4831372;29;20643;-63
2021/08/07 05:22:20;;;;;;;18.38;7.45;;;;;;;17.72;84.58;100347.59;4820223;29;20380;-60
2021/08/07 05:24:48;;;;;;;19.80;7.13;;;;;;;17.78;84.23;100338.84;4829783;29;20141;-62
2021/08/07 05:27:14;;;;;;;15.63;6.95;;;;;;;17.82;83.76;100333.91;4836059;29;20502;-59
2021/08/07 05:29:41;;;;;;;17.08;7.03;;;;;;;17.69;84.00;100324.16;4829369;29;20112;-63
2021/08/07 05:32:07;;;;;;;16.52;7.25;;;;;;;17.71;83.70;100328.22;4831231;29;20477;-61
2021/08/07 05:34:34;;;;;;;16.40;6.63;;;;;;;17.46;85.41;100330.66;4824481;29;20160;-61
2021/08/07 05:37:01;;;;;;;17.45;6.35;;;;;;;17.61;83.77;100337.63;4835179;29;20093;-61
2021/08/07 05:39:28;;;;;;;16.13;6.55;;;;;;;17.78;83.24;100333.53;4827378;29;20089;-63
2021/08/07 05:41:54;;;;;;;17.13;6.32;;;;;;;17.88;83.28;100331.31;4835106;29;20149;-61
2021/08/07 05:44:20;;;;;;;22.23;6.47;;;;;;;17.99;82.62;100332.50;4829043;29;20868;-61
2021/08/07 05:46:47;;;;;;;22.38;7.93;;;;;;;17.61;83.47;100329.66;4831395;29;20157;-61
2021/08/07 05:49:13;;;;;;;18.17;7.50;;;;;;;17.49;85.30;100332.91;4836171;29;20518;-61
2021/08/07 05:51:40;;;;;;;18.25;5.88;;;;;;;17.48;84.95;100333.94;4828534;29;20052;-60
2021/08/07 05:54:06;;;;;;;21.52;6.95;;;;;;;17.70;84.41;100326.59;4826181;29;20062;-60
2021/08/07 05:56:33;;;;;;;13.52;5.95;;;;;;;17.58;84.55;100330.88;4828897;29;20137;-60
2021/08/07 05:58:59;;;;;;;17.90;6.57;;;;;;;17.79;83.59;100324.53;4834827;29;20149;-61
2021/08/07 06:01:26;;;;;;;18.63;5.90;;;;;;;17.88;81.27;100335.78;4820512;29;20118;-60
2021/08/07 06:03:52;;;;;;;19.98;6.25;;;;;;;17.74;82.37;100327.00;4834491;29;20053;-63
2021/08/07 06:06:19;;;;;;;21.50;5.90;;;;;;;18.02;80.98;100328.63;4828673;29;20065;-61
2021/08/07 06:08:45;;;;;;;15.23;5.97;;;;;;;18.20;80.82;100327.97;4835294;29;20148;-61
2021/08/07 06:11:12;;;;;;;19.58;5.28;;;;;;;18.25;80.35;100322.81;4828988;29;20152;-63
2021/08/07 06:13:38;;;;;;;19.13;6.32;;;;;;;18.30;80.84;100310.56;4829659;29;20608;-63
2021/08/07 06:16:05;;;;;;;13.57;5.43;;;;;;;18.07;80.32;100315.53;4833755;29;20110;-60
2021/08/07 06:18:31;;;;;;;18.23;6.18;;;;;;;17.93;82.00;100312.91;4828164;29;20485;-63
2021/08/07 06:20:58;;;;;;;16.20;5.93;;;;;;;17.96;82.09;100314.34;4835284;29;20126;-61
2021/08/07 06:23:24;;;;;;;16.52;5.65;;;;;;;18.05;83.15;100309.63;4827651;29;20148;-63
2021/08/07 06:25:51;;;;;;;15.65;4.93;;;;;;;18.04;81.28;100310.66;4827222;29;20161;-61
2021/08/07 06:28:17;;;;;;;23.02;5.35;;;;;;;18.40;78.80;100315.44;4823814;29;20542;-63
2021/08/07 06:30:46;;;;;;;15.02;5.28;;;;;;;18.38;77.76;100309.50;4833715;29;20065;-62
2021/08/07 06:33:13;;;;;;;22.73;5.15;;;;;;;18.56;79.38;100314.97;4828357;29;20058;-61
2021/08/07 06:35:40;;;;;;;16.05;4.90;;;;;;;18.35;76.69;100309.94;4834992;29;20088;-60
2021/08/07 06:38:10;;;;;;;14.13;4.90;;;;;;;18.66;77.93;100309.22;4832063;29;20209;-60
2021/08/07 06:40:37;;;;;;;10.95;4.45;;;;;;;18.52;78.07;100313.75;4809314;29;20136;-61
2021/08/07 06:43:03;;;;;;;18.13;4.93;;;;;;;18.81;73.37;100297.50;4833989;29;20056;-63
2021/08/07 06:45:30;;;;;;;16.42;3.47;;;;;;;19.09;73.30;100303.25;4823611;29;20109;-59
2021/08/07 06:47:56;;;;;;;10.55;3.63;;;;;;;18.85;71.52;100302.16;4831795;29;20158;-61
2021/08/07 06:50:23;;;;;;;13.98;3.22;;;;;;;18.77;72.36;100302.41;4830326;29;20081;-61
2021/08/07 06:52:49;;;;;;;14.48;3.67;;;;;;;18.51;71.19;100308.66;4829543;29;20068;-63
2021/08/07 06:55:16;;;;;;;16.20;4.30;;;;;;;18.56;71.84;100309.66;4814658;29;20240;-62
2021/08/07 06:57:42;;;;;;;15.52;3.40;;;;;;;18.68;73.70;100301.00;4833503;29;20630;-60
2021/08/07 07:00:11;;;;;;;14.93;3.72;;;;;;;18.95;72.76;100296.38;4812595;29;20092;-61
2021/08/07 07:02:37;;;;;;;18.83;3.28;;;;;;;19.20;69.56;100298.28;4824822;29;20054;-63
2021/08/07 07:05:05;;;;;;;13.15;2.92;;;;;;;19.15;69.45;100291.75;4820912;29;20165;-60
2021/08/07 07:07:31;;;;;;;13.13;4.00;;;;;;;19.31;69.13;100292.25;4813921;29;20141;-63
2021/08/07 07:09:58;;;;;;;14.32;2.78;;;;;;;19.40;67.48;100293.59;4824619;29;20102;-63
2021/08/07 07:12:25;;;;;;;11.55;2.70;;;;;;;19.61;67.84;100288.94;4826344;29;20566;-63
2021/08/07 07:14:53;;;;;;;10.13;2.63;;;;;;;19.47;66.83;100294.38;4834498;29;20153;-63
2021/08/07 07:17:19;;;;;;;8.95;3.05;;;;;;;19.35;68.21;100296.13;4837472;29;20057;-60
2021/08/07 07:19:46;;;;;;;10.18;2.67;;;;;;;19.61;66.58;100292.41;4825221;29;20157;-60
2021/08/07 07:22:12;;;;;;;14.00;2.60;;;;;;;19.79;65.64;100288.97;4821536;29;20089;-61
2021/08/07 07:24:38;;;;;;;20.38;2.88;;;;;;;19.88;64.60;100289.53;4824871;29;20054;-60
2021/08/07 07:27:05;;;;;;;17.70;2.50;;;;;;;20.00;64.63;100290.41;4828634;29;20764;-61
2021/08/07 07:29:31;;;;;;;13.88;3.63;;;;;;;20.07;64.81;100287.66;4814291;29;20082;-61
2021/08/07 07:31:58;;;;;;;7.95;2.30;;;;;;;20.12;64.61;100288.63;4821219;29;20177;-63
2021/08/07 07:34:24;;;;;;;11.90;2.75;;;;;;;20.18;63.80;100291.44;4813649;29;20149;-61
2021/08/07 07:36:51;;;;;;;20.02;3.20;;;;;;;20.24;63.07;100282.56;4830932;29;20153;-63
2021/08/07 07:39:18;;;;;;;15.30;2.60;;;;;;;19.85;63.21;100281.97;4831679;29;20109;-61
2021/08/07 07:41:44;;;;;;;9.82;2.35;;;;;;;19.98;63.15;100297.81;4836198;29;20145;-58
2021/08/07 07:44:11;;;;;;;10.40;2.17;;;;;;;19.98;61.26;100286.34;4837606;29;20173;-60
2021/08/07 07:46:37;;;;;;;10.20;2.00;;;;;;;19.97;61.07;100282.84;4823938;29;20148;-60
2021/08/07 07:49:04;;;;;;;12.45;2.13;;;;;;;19.99;60.46;100293.28;4848581;29;20064;-58
2021/08/07 07:51:30;;;;;;;13.15;2.30;;;;;;;20.07;61.00;100288.50;4828753;29;20149;-61
2021/08/07 07:53:56;;;;;;;8.52;1.90;;;;;;;20.22;59.66;100285.44;4818564;29;20158;-63
2021/08/07 07:56:24;;;;;;;11.07;2.13;;;;;;;20.27;59.60;100277.63;4829572;29;20062;-63
2021/08/07 07:58:51;;;;;;;11.27;2.13;;;;;;;20.44;58.85;100274.31;4833851;29;20149;-62
2021/08/07 08:01:18;;;;;;;13.25;2.30;;;;;;;20.61;60.21;100277.22;4828415;29;20301;-63
2021/08/07 08:03:45;;;;;;;10.83;2.23;;;;;;;20.63;59.58;100270.63;4835744;29;20447;-61
2021/08/07 08:06:12;;;;;;;8.63;2.00;;;;;;;20.80;59.16;100270.00;4834336;29;20308;-63
2021/08/07 08:08:38;;;;;;;10.45;2.63;;;;;;;20.78;59.39;100267.53;4832128;29;20055;-61
2021/08/07 08:11:05;;;;;;;9.75;2.10;;;;;;;21.12;60.97;100265.97;4828586;29;20509;-61
2021/08/07 08:13:32;;;;;;;10.73;2.25;;;;;;;21.25;59.72;100272.16;4817089;29;20330;-61
2021/08/07 08:15:59;;;;;;;7.53;2.67;;;;;;;21.47;61.33;100267.09;4827246;29;20089;-62
2021/08/07 08:18:25;;;;;;;15.02;3.10;;;;;;;21.52;59.97;100254.69;4822272;29;20058;-61
2021/08/07 08:20:52;;;;;;;10.23;2.80;;;;;;;21.56;60.23;100260.38;4826273;29;20084;-62
2021/08/07 08:23:19;;;;;;;9.50;2.63;;;;;;;21.66;60.45;100257.94;4822572;29;20082;-59
2021/08/07 08:25:45;;;;;;;8.45;2.25;;;;;;;21.88;59.72;100255.47;4815857;29;20480;-62
2021/08/07 08:28:12;;;;;;;14.18;2.67;;;;;;;21.95;60.94;100257.19;4813679;29;20153;-60
2021/08/07 08:30:39;;;;;;;12.25;2.60;;;;;;;22.22;60.04;100268.16;4830342;29;20427;-62
2021/08/07 08:33:06;;;;;;;11.17;2.53;;;;;;;22.67;58.25;100259.41;4837199;29;20077;-62
2021/08/07 08:35:33;;;;;;;15.32;4.18;;;;;;;22.98;57.84;100260.75;4830866;29;20082;-62
2021/08/07 08:37:59;;;;;;;9.68;3.00;;;;;;;23.26;56.21;100254.53;4829446;29;20499;-61
2021/08/07 08:40:26;;;;;;;11.75;2.80;;;;;;;23.32;55.15;100252.75;4825539;29;20418;-61
2021/08/07 08:42:52;;;;;;;9.45;2.78;;;;;;;23.31;54.73;100259.16;4836509;29;20479;-62
2021/08/07 08:45:19;;;;;;;11.90;2.63;;;;;;;23.46;55.31;100262.06;4828857;29;20148;-62
2021/08/07 08:47:46;;;;;;;10.35;2.42;;;;;;;23.30;54.51;100258.34;4837350;29;20149;-62
2021/08/07 08:50:16;;;;;;;12.35;2.88;;;;;;;23.27;54.76;100252.69;4828618;29;20050;-62
2021/08/07 08:52:43;;;;;;;8.60;2.90;;;;;;;23.16;55.35;100253.56;4828717;29;20093;-62
2021/08/07 08:55:11;;;;;;;12.13;3.07;;;;;;;23.22;57.24;100253.41;4819524;29;20085;-62
2021/08/07 08:57:38;;;;;;;7.68;2.83;;;;;;;23.57;54.57;100243.47;4835815;29;20058;-62
2021/08/07 09:00:06;;;;;;;9.30;3.42;;;;;;;23.81;54.80;100247.56;4836725;29;20542;-62
2021/08/07 09:02:33;;;;;;;11.95;3.33;;;;;;;24.30;54.59;100240.66;4829385;29;20161;-59
2021/08/07 09:05:00;;;;;;;11.63;3.22;;;;;;;24.80;53.17;100234.19;4832664;29;20062;-61
2021/08/07 09:07:26;;;;;;;8.45;3.13;;;;;;;24.86;52.61;100231.28;4822726;29;20150;-62
2021/08/07 09:09:55;;;;;;;10.77;3.08;;;;;;;25.19;51.69;100224.03;4830355;29;20054;-61
2021/08/07 09:12:42;;;;;;;14.88;4.18;;;;;;;25.12;50.93;100231.50;4828703;29;20083;-62
2021/08/07 09:15:38;;;;;;;12.32;3.67;;;;;;;25.02;50.50;100220.69;4835742;29;20145;-62
2021/08/07 09:18:10;;;;;;;10.00;3.00;;;;;;;24.59;52.48;100225.97;4825421;29;20077;-62
2021/08/07 09:20:39;;;;;;;11.25;3.03;;;;;;;24.69;51.86;100221.75;4816996;29;20056;-62
2021/08/07 09:23:06;;;;;;;12.27;3.47;;;;;;;24.32;51.41;100214.41;4829973;29;20466;-62
2021/08/07 09:25:40;;;;;;;10.40;3.88;;;;;;;24.61;52.90;100221.16;4826291;29;20144;-61
2021/08/07 09:28:08;;;;;;;9.88;3.10;;;;;;;24.94;52.81;100224.66;4830331;29;20082;-62
2021/08/07 09:30:37;;;;;;;9.88;3.70;;;;;;;24.84;51.80;100221.91;4835158;29;20152;-61
2021/08/07 09:33:20;;;;;;;11.85;3.20;;;;;;;24.73;52.14;100212.13;4826386;29;20672;-62
2021/08/07 09:35:48;;;;;;;9.52;2.97;;;;;;;24.26;52.44;100210.84;4832860;29;20146;-62
2021/08/07 09:38:23;;;;;;;9.45;3.40;;;;;;;23.97;53.47;100203.06;4828591;29;20054;-62
2021/08/07 09:41:00;;;;;;;8.65;2.90;;;;;;;24.00;54.03;100202.53;4835168;29;20085;-62
2021/08/07 09:43:30;;;;;;;7.77;2.70;;;;;;;24.52;55.25;100200.41;4835363;29;20542;-62
2021/08/07 09:46:11;;;;;;;11.65;3.08;;;;;;;24.63;52.65;100194.09;4828181;29;20062;-62
2021/08/07 09:48:40;;;;;;;8.32;2.90;;;;;;;25.06;53.19;100197.66;4823554;29;20078;-62
2021/08/07 09:51:27;;;;;;;8.57;3.17;;;;;;;25.16;51.81;100200.38;4828884;29;20053;-62
2021/08/07 09:54:08;;;;;;;7.30;3.00;;;;;;;25.23;52.34;100186.78;4822826;29;20734;-62
2021/08/07 09:56:43;;;;;;;8.25;2.78;;;;;;;25.43;50.91;100188.78;4821870;29;20476;-62
2021/08/07 09:59:10;;;;;;;12.10;3.20;;;;;;;25.53;50.67;100180.78;4828990;29;20101;-62
2021/08/07 10:01:37;;;;;;;10.23;3.35;;;;;;;25.55;51.27;100189.38;4817113;29;20148;-62
2021/08/07 10:04:06;;;;;;;10.38;2.70;;;;;;;25.09;51.80;100186.41;4834895;29;20069;-62
2021/08/07 10:06:34;;;;;;;10.52;3.88;;;;;;;25.02;51.25;100183.94;4827825;29;20499;-62
2021/08/07 10:09:01;;;;;;;9.77;3.20;;;;;;;25.28;51.46;100186.81;4835307;29;20483;-62
2021/08/07 10:11:29;;;;;;;17.38;3.25;;;;;;;25.19;51.61;100191.03;4827351;29;20494;-62
2021/08/07 10:13:56;;;;;;;11.55;3.42;;;;;;;25.22;52.22;100183.28;4845097;29;20184;-62
2021/08/07 10:16:23;;;;;;;12.90;3.07;;;;;;;25.26;49.46;100188.94;4808959;29;20070;-61
2021/08/07 10:18:51;;;;;;;;;;;;;;;24.80;51.14;100173.31;4817417;29;20065;-61
2021/08/07 10:21:19;;;;;;;14.57;3.30;;;;;;;24.62;51.79;100174.53;4819449;29;20015;-62
2021/08/07 10:23:47;;;;;;;11.27;3.25;;;;;;;24.78;49.96;100178.13;4822255;29;20172;-62
2021/08/07 10:26:16;;;;;;;;;;;;;;;24.94;50.92;100168.31;4833207;29;20703;-62
2021/08/07 10:28:53;;;;;;;8.35;2.92;;;;;;;25.37;50.44;100163.78;4822155;29;19964;-62
2021/08/07 10:31:23;;;;;;;11.65;2.70;;;;;;;25.84;50.10;100172.84;4834078;29;20160;-62
2021/08/07 10:33:55;;;;;;;10.23;3.08;;;;;;;25.79;48.05;100165.56;4827880;29;20084;-62
2021/08/07 10:36:23;;;;;;;9.73;2.97;;;;;;;25.72;48.39;100159.63;4834207;29;20145;-62
2021/08/07 10:38:51;;;;;;;11.15;2.60;;;;;;;25.99;48.34;100159.50;4826596;29;20153;-62
2021/08/07 10:41:18;;;;;;;10.25;2.70;;;;;;;26.07;48.42;100160.03;4830284;29;20058;-62
2021/08/07 10:43:49;;;;;;;18.35;4.30;;;;;;;25.83;47.23;100158.63;4823819;29;20104;-62
2021/08/07 10:46:16;;;;;;;11.40;3.15;;;;;;;25.90;48.91;100155.66;4835149;29;20096;-62
2021/08/07 10:48:45;;;;;;;14.63;5.22;;;;;;;25.45;47.61;100151.75;4838720;29;20191;-62
2021/08/07 10:51:24;;;;;;;12.60;2.70;;;;;;;25.69;48.43;100148.63;4830545;29;20062;-62
2021/08/07 10:53:55;;;;;;;9.48;2.65;;;;;;;25.29;45.93;100152.75;4825436;29;20098;-62
2021/08/07 10:56:24;;;;;;;14.27;2.40;;;;;;;25.39;47.75;100158.97;4808432;29;20161;-62
2021/08/07 10:58:52;;;;;;;13.80;2.53;;;;;;;25.30;48.82;100135.56;4835084;29;20571;-62
2021/08/07 11:01:21;;;;;;;10.87;2.23;;;;;;;25.12;48.46;100140.25;4828700;29;20049;-61
2021/08/07 11:03:49;;;;;;;14.35;2.78;;;;;;;24.82;48.49;100141.69;4834687;29;20065;-62
2021/08/07 11:06:17;;;;;;;10.63;2.35;;;;;;;24.80;48.92;100140.34;4826657;29;20857;-61
2021/08/07 11:08:45;;;;;;;12.55;2.75;;;;;;;24.47;49.26;100140.31;4830392;29;20085;-62
2021/08/07 11:11:29;;;;;;;9.02;2.63;;;;;;;24.38;49.88;100130.31;4828657;29;20144;-62
2021/08/07 11:14:21;;;;;;;6.57;2.13;;;;;;;24.60;48.68;100128.38;4834675;29;20586;-62
2021/08/07 11:17:03;;;;;;;10.80;2.55;;;;;;;24.96;47.28;100119.78;4828993;29;20054;-62
2021/08/07 11:19:50;;;;;;;7.80;1.90;;;;;;;25.28;46.37;100114.34;4830932;29;20064;-62
2021/08/07 11:22:19;;;;;;;8.65;1.95;;;;;;;25.68;45.73;100115.59;4809927;29;20058;-62
2021/08/07 11:24:48;;;;;;;7.07;2.05;;;;;;;25.71;45.51;100115.03;4834902;29;20137;-62